createdAt,value
2017-08-30T00:00:06.676Z,19.50
2017-08-30T00:02:34.530Z,19.40
2017-08-30T00:05:02.101Z,19.30
2017-08-30T00:07:29.649Z,19.30
2017-08-30T00:09:57.192Z,19.20
2017-08-30T00:12:29.858Z,19.10
2017-08-30T00:14:58.136Z,19.10
2017-08-30T00:17:26.835Z,19.10
2017-08-30T00:19:54.343Z,19.00
2017-08-30T00:22:21.894Z,19.00
2017-08-30T00:27:52.188Z,19.00
2017-08-30T00:30:19.775Z,18.90
2017-08-30T00:32:48.454Z,18.80
2017-08-30T00:35:16.014Z,18.80
2017-08-30T00:37:43.539Z,18.80
2017-08-30T00:40:11.039Z,18.80
2017-08-30T00:42:38.539Z,18.80
2017-08-30T00:45:06.051Z,18.80
2017-08-30T00:47:33.610Z,18.80
2017-08-30T00:50:01.131Z,18.70
2017-08-30T00:52:29.445Z,18.60
2017-08-30T00:54:56.960Z,18.60
2017-08-30T00:59:58.291Z,18.50
2017-08-30T01:02:25.802Z,18.50
2017-08-30T01:04:53.324Z,18.50
2017-08-30T01:07:20.826Z,18.40
2017-08-30T01:09:49.196Z,18.40
2017-08-30T01:12:16.699Z,18.30
2017-08-30T01:14:45.030Z,18.40
2017-08-30T01:17:14.269Z,18.30
2017-08-30T01:19:41.824Z,18.30
2017-08-30T01:22:09.349Z,18.40
2017-08-30T01:24:36.851Z,18.40
2017-08-30T01:27:08.095Z,18.30
2017-08-30T01:29:35.660Z,18.20
2017-08-30T01:32:03.976Z,18.30
2017-08-30T01:34:31.492Z,18.30
2017-08-30T01:36:59.412Z,18.30
2017-08-30T01:39:26.920Z,18.30
2017-08-30T01:41:55.360Z,18.20
2017-08-30T01:44:22.871Z,18.20
2017-08-30T01:46:50.371Z,18.20
2017-08-30T01:49:17.874Z,18.10
2017-08-30T01:51:47.067Z,17.90
2017-08-30T01:54:14.593Z,17.90
2017-08-30T01:56:42.147Z,17.80
2017-08-30T01:59:09.660Z,17.80
2017-08-30T02:01:37.187Z,17.80
2017-08-30T02:04:04.711Z,17.70
2017-08-30T02:06:32.215Z,17.70
2017-08-30T02:08:59.992Z,17.70
2017-08-30T02:11:27.495Z,17.60
2017-08-30T02:13:55.548Z,17.70
2017-08-30T02:16:23.056Z,17.70
2017-08-30T02:18:50.671Z,17.60
2017-08-30T02:21:18.210Z,17.70
2017-08-30T02:23:45.752Z,17.70
2017-08-30T02:26:13.263Z,17.80
2017-08-30T02:28:40.770Z,17.80
2017-08-30T02:31:08.928Z,17.70
2017-08-30T02:33:37.236Z,17.70
2017-08-30T02:36:04.780Z,17.70
2017-08-30T02:38:32.283Z,17.60
2017-08-30T02:40:59.842Z,17.60
2017-08-30T02:43:29.089Z,17.60
2017-08-30T02:45:56.593Z,17.50
2017-08-30T02:48:24.104Z,17.50
2017-08-30T02:50:53.313Z,17.40
2017-08-30T02:53:20.848Z,17.40
2017-08-30T02:55:48.379Z,17.40
2017-08-30T02:58:15.884Z,17.30
2017-08-30T03:00:44.344Z,17.30
2017-08-30T03:03:11.888Z,17.30
2017-08-30T03:05:39.399Z,17.30
2017-08-30T03:08:07.675Z,17.10
2017-08-30T03:10:35.184Z,17.10
2017-08-30T03:13:03.627Z,17.10
2017-08-30T03:15:32.191Z,17.10
2017-08-30T03:17:59.696Z,17.10
2017-08-30T03:20:27.220Z,17.10
2017-08-30T03:22:56.444Z,17.00
2017-08-30T03:25:23.948Z,17.00
2017-08-30T03:27:51.452Z,17.00
2017-08-30T03:30:18.961Z,17.00
2017-08-30T03:32:46.481Z,17.00
2017-08-30T03:35:14.016Z,17.00
2017-08-30T03:37:41.645Z,17.20
2017-08-30T03:40:09.750Z,17.40
2017-08-30T03:42:37.570Z,17.60
2017-08-30T03:45:05.713Z,17.60
2017-08-30T03:47:34.771Z,17.50
2017-08-30T03:50:03.052Z,17.50
2017-08-30T03:52:30.566Z,17.50
2017-08-30T03:54:59.607Z,17.30
2017-08-30T03:57:27.563Z,17.30
2017-08-30T03:59:55.087Z,17.20
2017-08-30T04:02:24.024Z,17.20
2017-08-30T04:04:51.541Z,17.20
2017-08-30T04:07:19.240Z,17.30
2017-08-30T04:09:46.815Z,17.40
2017-08-30T04:12:15.117Z,17.80
2017-08-30T04:14:43.483Z,17.90
2017-08-30T04:17:10.984Z,17.90
2017-08-30T04:19:39.167Z,17.90
2017-08-30T04:22:07.139Z,17.90
2017-08-30T04:24:34.651Z,18.00
2017-08-30T04:27:02.151Z,18.00
2017-08-30T04:29:29.665Z,18.00
2017-08-30T04:31:57.224Z,18.00
2017-08-30T04:34:24.783Z,17.90
2017-08-30T04:36:52.295Z,17.90
2017-08-30T04:39:19.803Z,17.80
2017-08-30T04:41:48.117Z,17.60
2017-08-30T04:44:15.652Z,17.60
2017-08-30T04:46:43.212Z,17.70
2017-08-30T04:49:10.715Z,17.80
2017-08-30T04:51:38.215Z,17.90
2017-08-30T04:54:05.725Z,17.90
2017-08-30T04:56:33.358Z,17.70
2017-08-30T04:59:01.665Z,17.20
2017-08-30T05:01:29.183Z,17.20
2017-08-30T05:03:56.727Z,17.10
2017-08-30T05:06:24.807Z,17.10
2017-08-30T05:08:54.261Z,17.20
2017-08-30T05:11:21.802Z,17.10
2017-08-30T05:13:49.316Z,17.20
2017-08-30T05:16:19.820Z,17.20
2017-08-30T05:18:47.330Z,17.20
2017-08-30T05:21:15.328Z,17.30
2017-08-30T05:23:44.316Z,17.40
2017-08-30T05:26:11.840Z,17.40
2017-08-30T05:28:40.140Z,17.40
2017-08-30T05:31:08.072Z,17.40
2017-08-30T05:33:35.761Z,17.40
2017-08-30T05:36:03.263Z,17.40
2017-08-30T05:38:31.283Z,17.50
2017-08-30T05:40:59.643Z,17.70
2017-08-30T05:43:27.171Z,17.70
2017-08-30T05:45:54.735Z,17.80
2017-08-30T05:48:22.256Z,17.70
2017-08-30T05:50:49.775Z,17.80
2017-08-30T05:53:18.252Z,17.90
2017-08-30T05:55:46.445Z,18.00
2017-08-30T05:58:13.984Z,18.20
2017-08-30T06:00:41.530Z,18.30
2017-08-30T06:03:09.036Z,18.40
2017-08-30T06:05:36.552Z,18.50
2017-08-30T06:08:04.068Z,18.60
2017-08-30T06:10:31.577Z,18.80
2017-08-30T06:13:00.867Z,18.80
2017-08-30T06:15:28.428Z,19.00
2017-08-30T06:17:55.935Z,19.20
2017-08-30T06:20:23.451Z,19.40
2017-08-30T06:22:50.960Z,19.60
2017-08-30T06:25:19.331Z,19.70
2017-08-30T06:27:46.904Z,19.80
2017-08-30T06:30:15.767Z,20.10
2017-08-30T06:32:44.207Z,20.10
2017-08-30T06:35:11.928Z,20.40
2017-08-30T06:37:39.484Z,20.50
2017-08-30T06:40:07.009Z,20.70
2017-08-30T06:42:34.548Z,20.90
2017-08-30T06:45:02.123Z,21.20
2017-08-30T06:47:33.551Z,21.40
2017-08-30T06:50:01.060Z,21.30
2017-08-30T06:52:28.596Z,21.60
2017-08-30T06:54:56.156Z,21.90
2017-08-30T06:57:23.672Z,22.30
2017-08-30T06:59:51.880Z,22.60
2017-08-30T07:02:22.923Z,22.90
2017-08-30T07:04:50.483Z,23.30
2017-08-30T07:07:19.321Z,23.70
2017-08-30T07:09:47.701Z,24.00
2017-08-30T07:12:15.244Z,24.20
2017-08-30T07:14:42.816Z,24.20
2017-08-30T07:17:11.971Z,24.30
2017-08-30T07:19:39.478Z,24.80
2017-08-30T07:22:07.025Z,25.80
2017-08-30T07:24:34.599Z,27.60
2017-08-30T07:27:02.148Z,28.90
2017-08-30T07:29:29.655Z,29.80
2017-08-30T07:31:57.364Z,30.40
2017-08-30T07:34:24.915Z,31.00
2017-08-30T07:36:52.449Z,31.90
2017-08-30T07:39:20.512Z,31.90
2017-08-30T07:41:48.020Z,31.70
2017-08-30T07:44:15.611Z,32.70
2017-08-30T07:46:43.223Z,32.30
2017-08-30T07:49:14.871Z,31.90
2017-08-30T07:51:43.120Z,31.80
2017-08-30T07:54:12.023Z,34.70
2017-08-30T07:56:41.469Z,34.50
2017-08-30T07:59:09.155Z,36.60
2017-08-30T08:01:36.670Z,37.70
2017-08-30T08:04:05.116Z,36.80
2017-08-30T08:06:34.566Z,35.50
2017-08-30T08:09:02.079Z,35.40
2017-08-30T08:11:30.320Z,34.70
2017-08-30T08:13:57.820Z,34.70
2017-08-30T08:16:25.352Z,36.80
2017-08-30T08:18:52.939Z,39.00
2017-08-30T08:21:21.015Z,39.40
2017-08-30T08:23:48.806Z,38.90
2017-08-30T08:26:16.368Z,39.00
2017-08-30T08:28:44.205Z,37.80
2017-08-30T08:31:13.022Z,36.30
2017-08-30T08:33:40.544Z,36.10
2017-08-30T08:36:09.358Z,35.60
2017-08-30T08:38:37.652Z,35.70
2017-08-30T08:41:05.163Z,35.70
2017-08-30T08:43:32.668Z,35.80
2017-08-30T08:46:00.192Z,36.90
2017-08-30T08:48:29.304Z,36.60
2017-08-30T08:50:58.091Z,37.50
2017-08-30T08:53:27.291Z,38.60
2017-08-30T08:55:54.791Z,38.60
2017-08-30T08:58:22.311Z,38.70
2017-08-30T09:00:49.893Z,38.30
2017-08-30T09:03:18.187Z,37.60
2017-08-30T09:05:50.873Z,37.90
2017-08-30T09:08:18.443Z,37.70
2017-08-30T09:10:46.875Z,38.30
2017-08-30T09:13:15.149Z,40.70
2017-08-30T09:15:43.485Z,40.30
2017-08-30T09:18:12.099Z,40.80
2017-08-30T09:20:39.639Z,40.80
2017-08-30T09:23:07.168Z,40.00
2017-08-30T09:25:35.965Z,40.80
2017-08-30T09:28:03.488Z,41.50
2017-08-30T09:30:31.030Z,42.70
2017-08-30T09:32:58.568Z,42.70
2017-08-30T09:35:29.899Z,44.30
2017-08-30T09:37:57.916Z,43.80
2017-08-30T09:40:26.601Z,44.60
2017-08-30T09:42:54.111Z,44.60
2017-08-30T09:45:21.713Z,42.30
2017-08-30T09:47:50.144Z,40.60
2017-08-30T09:50:17.642Z,39.60
2017-08-30T09:52:48.312Z,38.90
2017-08-30T09:55:16.307Z,38.30
2017-08-30T09:57:43.849Z,39.10
2017-08-30T10:00:11.971Z,38.60
2017-08-30T10:02:39.625Z,39.40
2017-08-30T10:05:07.636Z,42.00
2017-08-30T10:07:38.990Z,44.40
2017-08-30T10:10:07.304Z,42.80
2017-08-30T10:12:34.804Z,42.80
2017-08-30T10:15:02.335Z,42.30
2017-08-30T10:17:29.884Z,43.30
2017-08-30T10:19:57.381Z,42.30
2017-08-30T10:22:24.945Z,44.20
2017-08-30T10:24:52.473Z,45.70
2017-08-30T10:27:19.980Z,45.80
2017-08-30T10:29:47.479Z,45.30
2017-08-30T10:32:14.976Z,45.00
2017-08-30T10:34:43.819Z,43.20
2017-08-30T10:37:11.324Z,40.80
2017-08-30T10:39:38.862Z,40.80
2017-08-30T10:42:06.393Z,41.70
2017-08-30T10:44:33.904Z,40.80
2017-08-30T10:47:01.981Z,40.50
2017-08-30T10:49:29.513Z,42.00
2017-08-30T10:51:57.051Z,43.90
2017-08-30T10:54:24.610Z,44.20
2017-08-30T10:56:52.906Z,41.90
2017-08-30T10:59:20.468Z,42.30
2017-08-30T11:01:47.977Z,43.50
2017-08-30T11:04:15.917Z,44.80
2017-08-30T11:06:46.591Z,43.60
2017-08-30T11:09:14.109Z,43.10
2017-08-30T11:11:41.620Z,42.80
2017-08-30T11:14:09.142Z,44.20
2017-08-30T11:16:36.724Z,46.80
2017-08-30T11:19:04.229Z,44.60
2017-08-30T11:21:31.758Z,43.30
2017-08-30T11:24:02.416Z,44.40
2017-08-30T11:26:29.967Z,44.60
2017-08-30T11:28:57.500Z,41.80
2017-08-30T11:31:25.020Z,42.50
2017-08-30T11:33:52.756Z,43.50
2017-08-30T11:36:20.279Z,43.90
2017-08-30T11:38:49.506Z,41.10
2017-08-30T11:41:17.017Z,41.10
2017-08-30T11:43:44.733Z,40.80
2017-08-30T11:46:12.235Z,41.30
2017-08-30T11:48:39.780Z,43.00
2017-08-30T11:51:08.132Z,44.80
2017-08-30T11:53:36.356Z,45.80
2017-08-30T11:56:03.868Z,46.10
2017-08-30T11:58:31.413Z,45.50
2017-08-30T12:00:58.952Z,44.80
2017-08-30T12:03:27.091Z,45.70
2017-08-30T12:05:54.604Z,44.80
2017-08-30T12:08:22.111Z,44.80
2017-08-30T12:10:49.690Z,44.50
2017-08-30T12:13:17.284Z,45.10
2017-08-30T12:15:44.811Z,45.70
2017-08-30T12:18:12.314Z,46.20
2017-08-30T12:20:40.753Z,46.40
2017-08-30T12:23:08.352Z,44.20
2017-08-30T12:25:37.357Z,44.40
2017-08-30T12:28:05.340Z,44.30
2017-08-30T12:30:32.912Z,44.50
2017-08-30T12:33:00.440Z,45.90
2017-08-30T12:35:27.979Z,46.10
2017-08-30T12:38:01.176Z,44.80
2017-08-30T12:40:32.332Z,45.20
2017-08-30T12:43:00.699Z,44.60
2017-08-30T12:45:28.252Z,44.80
2017-08-30T12:47:56.516Z,42.50
2017-08-30T12:50:24.024Z,42.50
2017-08-30T12:52:59.685Z,41.70
2017-08-30T12:55:27.195Z,40.60
2017-08-30T12:57:54.728Z,40.10
2017-08-30T13:00:22.300Z,39.40
2017-08-30T13:02:50.735Z,39.30
2017-08-30T13:05:19.559Z,39.20
2017-08-30T13:07:48.033Z,39.00
2017-08-30T13:10:15.639Z,38.60
2017-08-30T13:12:43.937Z,38.60
2017-08-30T13:15:11.678Z,38.60
2017-08-30T13:17:40.871Z,38.40
2017-08-30T13:20:08.403Z,38.30
2017-08-30T13:22:35.929Z,38.10
2017-08-30T13:25:06.271Z,37.90
2017-08-30T13:27:33.843Z,38.00
2017-08-30T13:30:01.428Z,38.10
2017-08-30T13:32:29.566Z,38.00
2017-08-30T13:34:57.076Z,37.90
2017-08-30T13:37:25.152Z,37.50
2017-08-30T13:39:54.399Z,37.00
2017-08-30T13:42:22.598Z,36.90
2017-08-30T13:44:50.103Z,37.10
2017-08-30T13:47:17.625Z,37.20
2017-08-30T13:49:45.324Z,37.10
2017-08-30T13:52:13.278Z,36.80
2017-08-30T13:54:40.784Z,36.90
2017-08-30T13:57:08.308Z,36.70
2017-08-30T13:59:36.540Z,36.60
2017-08-30T14:02:04.122Z,36.50
2017-08-30T14:04:31.641Z,36.20
2017-08-30T14:06:59.201Z,36.00
2017-08-30T14:09:27.472Z,35.80
2017-08-30T14:11:56.028Z,35.80
2017-08-30T14:14:24.044Z,35.70
2017-08-30T14:16:51.683Z,35.70
2017-08-30T14:19:19.318Z,35.40
2017-08-30T14:21:46.923Z,35.20
2017-08-30T14:24:14.431Z,35.00
2017-08-30T14:26:42.005Z,34.90
2017-08-30T14:29:09.549Z,34.80
2017-08-30T14:31:37.620Z,34.90
2017-08-30T14:34:05.209Z,34.90
2017-08-30T14:36:32.796Z,34.80
2017-08-30T14:39:00.391Z,34.90
2017-08-30T14:41:27.973Z,34.70
2017-08-30T14:43:56.264Z,34.30
2017-08-30T14:46:24.519Z,34.30
2017-08-30T14:48:52.067Z,34.10
2017-08-30T14:51:19.591Z,33.90
2017-08-30T14:53:47.092Z,33.90
2017-08-30T14:56:18.820Z,33.90
2017-08-30T14:58:46.360Z,33.90
2017-08-30T15:01:13.863Z,34.00
2017-08-30T15:03:41.425Z,34.20
2017-08-30T15:06:08.938Z,34.20
2017-08-30T15:08:36.548Z,34.30
2017-08-30T15:11:04.098Z,34.40
2017-08-30T15:13:31.768Z,34.60
2017-08-30T15:15:59.355Z,34.70
2017-08-30T15:18:27.197Z,34.80
2017-08-30T15:20:54.788Z,34.80
2017-08-30T15:23:23.266Z,34.90
2017-08-30T15:25:53.961Z,35.00
2017-08-30T15:28:22.017Z,35.10
2017-08-30T15:30:49.545Z,35.00
2017-08-30T15:33:18.962Z,34.80
2017-08-30T15:35:47.008Z,34.90
2017-08-30T15:38:14.520Z,34.90
2017-08-30T15:40:42.024Z,34.80
2017-08-30T15:43:09.577Z,34.80
2017-08-30T15:45:37.119Z,34.70
2017-08-30T15:48:04.641Z,34.70
2017-08-30T15:50:33.322Z,34.40
2017-08-30T15:53:00.832Z,34.10
2017-08-30T15:55:28.359Z,33.80
2017-08-30T15:57:55.874Z,33.60
2017-08-30T16:00:24.172Z,33.40
2017-08-30T16:02:51.685Z,33.10
2017-08-30T16:05:19.559Z,32.90
2017-08-30T16:07:47.858Z,32.70
2017-08-30T16:10:15.361Z,32.70
2017-08-30T16:12:45.870Z,32.60
2017-08-30T16:15:13.376Z,32.60
2017-08-30T16:17:40.900Z,32.40
2017-08-30T16:20:08.440Z,32.30
2017-08-30T16:22:36.012Z,32.30
2017-08-30T16:25:03.518Z,32.20
2017-08-30T16:27:31.365Z,32.10
2017-08-30T16:30:06.305Z,32.10
2017-08-30T16:32:33.816Z,32.00
2017-08-30T16:35:01.540Z,31.90
2017-08-30T16:37:29.099Z,31.80
2017-08-30T16:39:56.626Z,31.80
2017-08-30T16:42:27.368Z,31.70
2017-08-30T16:44:54.879Z,31.70
2017-08-30T16:47:22.448Z,31.60
2017-08-30T16:49:50.765Z,31.40
2017-08-30T16:52:19.044Z,31.20
2017-08-30T16:54:46.585Z,31.20
2017-08-30T16:57:14.745Z,31.00
2017-08-30T16:59:44.139Z,30.90
2017-08-30T17:02:11.669Z,30.80
2017-08-30T17:04:39.223Z,30.70
2017-08-30T17:07:06.791Z,30.70
2017-08-30T17:09:34.370Z,30.60
2017-08-30T17:12:02.645Z,30.40
2017-08-30T17:14:30.212Z,30.40
2017-08-30T17:16:57.724Z,30.40
2017-08-30T17:19:25.264Z,30.30
2017-08-30T17:21:52.788Z,30.10
2017-08-30T17:24:21.040Z,30.10
2017-08-30T17:26:48.591Z,30.00
2017-08-30T17:29:16.095Z,29.80
2017-08-30T17:31:47.304Z,29.70
2017-08-30T17:34:15.495Z,29.70
2017-08-30T17:36:50.079Z,29.60
2017-08-30T17:39:20.768Z,29.50
2017-08-30T17:41:49.327Z,29.40
2017-08-30T17:44:20.228Z,29.30
2017-08-30T17:46:47.747Z,29.10
2017-08-30T17:49:15.255Z,29.10
2017-08-30T17:51:42.843Z,28.90
2017-08-30T17:54:10.413Z,28.80
2017-08-30T17:56:37.927Z,28.70
2017-08-30T17:59:13.638Z,28.70
2017-08-30T18:01:41.955Z,28.40
2017-08-30T18:04:09.491Z,28.40
2017-08-30T18:06:37.007Z,28.30
2017-08-30T18:09:04.516Z,28.20
2017-08-30T18:11:32.055Z,28.20
2017-08-30T18:13:59.565Z,28.10
2017-08-30T18:16:30.241Z,28.00
2017-08-30T18:18:58.527Z,28.00
2017-08-30T18:21:26.103Z,27.90
2017-08-30T18:23:53.709Z,28.00
2017-08-30T18:26:21.225Z,28.00
2017-08-30T18:28:52.213Z,28.00
2017-08-30T18:31:22.663Z,28.10
2017-08-30T18:33:50.740Z,28.10
2017-08-30T18:36:22.052Z,28.00
2017-08-30T18:38:49.808Z,28.00
2017-08-30T18:41:17.848Z,28.00
2017-08-30T18:43:48.415Z,27.80
2017-08-30T18:46:15.939Z,27.70
2017-08-30T18:48:51.729Z,27.50
2017-08-30T18:51:19.255Z,27.50
2017-08-30T18:53:46.841Z,27.40
2017-08-30T18:56:14.347Z,27.30
2017-08-30T18:58:46.422Z,27.20
2017-08-30T19:01:13.940Z,27.10
2017-08-30T19:03:41.500Z,27.10
2017-08-30T19:06:09.004Z,27.00
2017-08-30T19:08:36.609Z,27.00
2017-08-30T19:11:04.121Z,27.00
2017-08-30T19:13:31.788Z,27.00
2017-08-30T19:15:59.333Z,27.10
2017-08-30T19:18:26.934Z,27.10
2017-08-30T19:20:54.452Z,27.10
2017-08-30T19:23:22.436Z,27.10
2017-08-30T19:25:49.988Z,27.20
2017-08-30T19:28:17.989Z,27.10
2017-08-30T19:30:49.003Z,27.10
2017-08-30T19:33:16.575Z,27.20
2017-08-30T19:35:45.101Z,27.00
2017-08-30T19:38:12.615Z,27.10
2017-08-30T19:40:40.920Z,27.10
2017-08-30T19:43:08.983Z,27.00
2017-08-30T19:45:44.084Z,27.00
2017-08-30T19:48:14.003Z,27.00
2017-08-30T19:50:41.736Z,27.00
2017-08-30T19:53:09.729Z,27.00
2017-08-30T19:55:38.052Z,26.90
2017-08-30T19:58:05.586Z,26.80
2017-08-30T20:00:33.095Z,26.70
2017-08-30T20:03:02.791Z,26.60
2017-08-30T20:05:30.380Z,26.50
2017-08-30T20:07:57.943Z,26.40
2017-08-30T20:10:25.488Z,26.50
2017-08-30T20:12:53.008Z,26.60
2017-08-30T20:15:28.291Z,26.70
2017-08-30T20:17:56.775Z,26.60
2017-08-30T20:20:24.318Z,26.50
2017-08-30T20:22:51.851Z,26.30
2017-08-30T20:25:19.409Z,26.20
2017-08-30T20:27:47.417Z,26.10
2017-08-30T20:30:22.052Z,26.00
2017-08-30T20:32:49.584Z,25.90
2017-08-30T20:35:17.165Z,25.90
2017-08-30T20:37:44.695Z,25.80
2017-08-30T20:40:13.055Z,25.60
2017-08-30T20:42:40.579Z,25.50
2017-08-30T20:45:08.091Z,25.50
2017-08-30T20:47:43.655Z,25.40
2017-08-30T20:50:11.174Z,25.30
2017-08-30T20:52:38.707Z,25.30
2017-08-30T20:55:06.275Z,25.20
2017-08-30T20:57:34.688Z,25.20
2017-08-30T21:00:02.196Z,25.10
2017-08-30T21:02:29.702Z,25.10
2017-08-30T21:04:57.245Z,25.10
2017-08-30T21:07:27.642Z,25.10
2017-08-30T21:09:55.192Z,25.10
2017-08-30T21:12:22.705Z,25.10
2017-08-30T21:14:50.222Z,24.90
2017-08-30T21:17:21.819Z,24.90
2017-08-30T21:19:49.340Z,24.90
2017-08-30T21:22:17.248Z,25.00
2017-08-30T21:24:44.866Z,25.10
2017-08-30T21:27:12.374Z,25.10
2017-08-30T21:29:39.916Z,25.20
2017-08-30T21:32:07.415Z,25.10
2017-08-30T21:34:39.536Z,25.00
2017-08-30T21:37:10.307Z,25.00
2017-08-30T21:39:41.491Z,24.90
2017-08-30T21:42:08.998Z,24.80
2017-08-30T21:44:36.992Z,24.80
2017-08-30T21:47:07.853Z,24.80
2017-08-30T21:49:35.355Z,24.70
2017-08-30T21:52:03.346Z,24.70
2017-08-30T21:54:34.231Z,24.70
2017-08-30T21:57:01.751Z,24.70
2017-08-30T21:59:29.715Z,24.70
2017-08-30T22:01:57.225Z,24.70
2017-08-30T22:04:24.727Z,24.70
2017-08-30T22:06:55.917Z,24.70
2017-08-30T22:09:23.436Z,24.70
2017-08-30T22:11:51.000Z,24.70
2017-08-30T22:14:18.518Z,24.70
2017-08-30T22:16:46.579Z,24.80
2017-08-30T22:19:15.099Z,24.80
2017-08-30T22:21:42.618Z,24.80
2017-08-30T22:24:10.148Z,24.80
2017-08-30T22:26:37.680Z,24.80
2017-08-30T22:29:05.178Z,24.80
2017-08-30T22:31:32.684Z,24.90
2017-08-30T22:34:00.251Z,24.80
2017-08-30T22:36:31.906Z,24.80
2017-08-30T22:38:59.420Z,24.70
2017-08-30T22:41:26.956Z,24.60
2017-08-30T22:43:54.849Z,24.50
2017-08-30T22:46:22.384Z,24.50
2017-08-30T22:48:49.887Z,24.40
2017-08-30T22:51:17.429Z,24.30
2017-08-30T22:53:45.004Z,24.20
2017-08-30T22:56:12.512Z,24.10
2017-08-30T22:58:40.012Z,24.10
2017-08-30T23:01:07.556Z,24.00
2017-08-30T23:03:35.064Z,24.00
2017-08-30T23:06:10.367Z,23.90
2017-08-30T23:08:38.204Z,23.70
2017-08-30T23:11:05.699Z,23.40
2017-08-30T23:13:33.284Z,23.20
2017-08-30T23:16:00.779Z,23.10
2017-08-30T23:18:28.308Z,23.00
2017-08-30T23:20:55.851Z,22.90
2017-08-30T23:23:23.480Z,22.70
2017-08-30T23:25:51.083Z,22.60
2017-08-30T23:28:18.608Z,22.50
2017-08-30T23:30:46.328Z,22.30
2017-08-30T23:33:17.776Z,22.00
2017-08-30T23:35:45.314Z,21.60
2017-08-30T23:38:12.821Z,21.50
2017-08-30T23:40:40.372Z,21.50
2017-08-30T23:43:07.929Z,21.40
2017-08-30T23:45:35.459Z,21.30
2017-08-30T23:48:03.039Z,21.20
2017-08-30T23:50:30.591Z,21.10
2017-08-30T23:52:58.091Z,21.10
2017-08-30T23:55:25.632Z,21.00
2017-08-30T23:57:53.212Z,21.00
